map of HUQ home
HUQ - Airport
Location
City:  Houn, Libyan Arab Jamahiriya (Libya)
ICAO:HLON
IATA:HUQ

Details
Type:Airport (Aerodrome, Airfield)
Latitude:2906'36"N (29.110106)
Longitude:1557'56"E (15.965567)
Datum:WGS 1984
Elevation:919 ft (280 m)
Variation:2.83E (WMM2015 magnetic declination)
0.09 annual change
Runways:1
Longest:5905 × 98 ft (1800 × 30 m), paved

Time
Time Zone:UTC+1 (DST+2)

Weather
TAF:HLON 191100Z 1912/2012 33015KT CAVOK
BECMG 1920/1922 03010KT
BECMG 2000/2002 VRB02KT
BECMG 2008/2010 33015KT

Related Locations
Nearby:
Farthest:RAR: 11828 mi / 19035 km
Avarua [Rarotonga Intl], Rarotonga Island, CK

Find:

   beyond  
but within

Other Information
Maps:
NOTAMs:
Links:
Sources:

  
  • flag of Libyan Arab Jamahiriya (Libya)
  

Sectional Chart

Flight Planning
at skyvector.com

Satellite Image

Google Maps Satellite view

 

Copyright © 2004-2018 Karl L. Swartz. All rights reserved.
The Great Circle Mapper name and logo are trademarks of the Great Circle Mapper.
All other trademarks mentioned herein belong to their respective owners.
Please see credits for attibutions and further copyright information.

  Follow gcmap on Facebook Follow gcmap on Twitter Follow gcmap on Google+ GCmap on LinkedIn

hCard Microformat

Geo Microformat